CheckWX is a tool to help pilots better visualize weather data.  It is not intended as a substitute for an official pre-flight weather briefing.

08:15:52 UTC

KSSC METAR
Shaw AFB Airport
Sumter, South Carolina, USA
Current

20 mins ago

KSSC 270756Z AUTO 29009G19KT 10SM CLR 07/00 A2988 RMK AO2 SLP120 T00680002 $
Observed
Feb-27 @ 07:56 UTC
Wind
  • 290° at 9 KTS
  • Gusting to 19 KTS
Visibility
10 SM
Flight Rules
VFR
Cloud Levels
  • Clear skies
Temperature
C / 45°F
Dewpoint
C / 32°F
Humidity
61%
Altimeter
29.88" Hg
Pressure
1011.82 hPa
Previous

1 hour ago

KSSC 270656Z AUTO 27010G16KT 10SM CLR 07/02 A2987 RMK AO2 SLP116 T00730018 $
Observed
Feb-27 @ 06:56 UTC
Wind
  • 270° at 10 KTS
  • Gusting to 16 KTS
Visibility
10 SM
Flight Rules
VFR
Cloud Levels
  • Clear skies
Temperature
C / 45°F
Dewpoint
C / 36°F
Humidity
71%
Altimeter
29.87" Hg
Pressure
1011.52 hPa
Previous

2 hours ago

KSSC 270556Z AUTO 27011KT 10SM CLR 09/02 A2986 RMK AO2 SLP113 T00850021 10148 20085 52015 $
Observed
Feb-27 @ 05:56 UTC
Wind
  • 270° at 11 KTS
Visibility
10 SM
Flight Rules
VFR
Cloud Levels
  • Clear skies
Temperature
C / 48°F
Dewpoint
C / 36°F
Humidity
62%
Altimeter
29.86" Hg
Pressure
1011.22 hPa